Bejou, Minnesota
Current Conditions -  °F | °C
As of 8:35 AM on Thursday 30 Oct 2014 (Local Time) from K3N8 Reporting Station
Haze Haze  
Wind Chill: 29°   Ceiling: 2800
Heat Index: 35°   Visibility: 5mi
Dew Point: 35°   Wind: 8mph
Humidity: 97%   Direction: 10°N
Pressure: 30.11"   Gusts: NA
Location:  47.44°N, 95.98°W
Report Text: K3N8 301335Z AUTO 01007KT 5SM BR SCT003 OVC028 02/01 A3011 RMK AO2 T00180014
Loading
Personal Weather Stations






























Interactive Weather Map
Tropical Storm Tracking
New forecast layout! Learn more

10-Day Weather Forecast

Advertisements
Track Severe Weather on mobile